Accueil en_GB de_DE fr_FR  

30.04.17 10:45 UTC   Mobile
Tarifs
FAQ (Foire aux questions)

 
TopMeteo
Nom d'utilisateur Mot de passe  



La recherche de l'itinéraire n'est disponible qu'aux utilisateurs avec un abonnement actif.

Nous vous affichons les endroits standard. Pour mieux comprendre les rapports de temps de METAR cf. Wikipedia.


EDAH Heringsdorf TAF/S

10:20Z
300800Z 3009/3018 11012KT CAVOK
BECMG 3015/3018 08006KT
12011KT 090V150 CAVOK 10/M00 Q1023
EDDG Münster Osnabrück Flughafen TAF/L

10:20Z
300500Z 3006/0106 10004KT CAVOK
BECMG 3007/3010 12010KT ; TEMPO 3011/3017 13015G25KT ; BECMG 3018/3021 10005KT
12009G19KT 030V180 CAVOK 15/01 Q1013 NOSIG
KBUF Greater Buffalo International TAF/L




09:54Z
AMD 300906Z 3009/0106 08010KT P6SM OVC100
FM301000 08012KT 6SM -SHRA VCTS SCT035 OVC060CB
FM301400 08012G18KT P6SM BKN040
FM302300 VRB05KT P6SM VCSH BKN040
FM010300 17005KT P6SM BKN060 WS020/20040KT
07015G20KT 10SM BKN075 BKN095 OVC160 06/M02 A3018
KPIT Greater Pittsburgh International TAF/L




09:51Z
AMD 301017Z 3010/0112 09004KT P6SM VCSH SCT045
FM301200 14005KT P6SM SCT250
FM301500 19009G18KT P6SM SCT040
FM010000 16007KT P6SM SKC
FM010000 16007KT P6SM SKC
14006KT 10SM -RA SCT065 BKN100 OVC150 15/14 A3002
KAXH Houston Southwest 10:15Z AUTO 32010G15KT 10SM OVC050 17/10 A2981 RMK AO2 T01720096
LIMC Milano/Malpensa TAF/L

10:20Z
300500Z 3006/0112 36006KT CAVOK
BECMG 0106/0108 RA
22006KT 130V270 9999 SCT030 16/02 Q1016 NOSIG
LOWK Klagenfurt-Flughafen TAF/L

10:20Z
300515Z 3006/0106 VRB02KT 9999 FEW050 SCT065 TX15/3015Z TN01/3006Z
BECMG 3010/3012 09007KT ; BECMG 3016/3018 VRB02KT CAVOK ; TEMPO 3022/0105 9999 BKN040
VRB01KT 9999 FEW050 SCT060 13/02 Q1017 NOSIG
FYWB Walvis Bay 08:00Z 20007KT 9999 FEW100 21/14 Q1019
FBFT Francistown TAF/S
10:00Z
300000Z 3003/3012 10016KT 9999 OVC012
11012KT 9999 BKN020 19/15 Q1027

Data source: ftp://tgftp.nws.noaa.gov/SL.us008001
"Data is provided as a public service by NOAA's National Weather Service (NWS) and is considered public information and may be distributed or copied."
 
 
CGV
Mentions légales
Qui sommes nous?
Simulation numérique: 06 UTC - Prévision: Ma 02.05.17 04:00